createdAt,value
2019-02-04T00:01:37.278Z,-0.20
2019-02-04T00:04:06.643Z,-0.30
2019-02-04T00:06:36.045Z,-0.30
2019-02-04T00:09:08.813Z,-0.30
2019-02-04T00:11:38.271Z,-0.30
2019-02-04T00:14:08.069Z,-0.30
2019-02-04T00:16:40.849Z,-0.30
2019-02-04T00:19:08.480Z,-0.40
2019-02-04T00:21:38.036Z,-0.40
2019-02-04T00:24:07.437Z,-0.40
2019-02-04T00:26:36.827Z,-0.40
2019-02-04T00:29:06.452Z,-0.40
2019-02-04T00:31:35.865Z,-0.40
2019-02-04T00:34:05.309Z,-0.40
2019-02-04T00:36:34.721Z,-0.40
2019-02-04T00:39:05.701Z,-0.40
2019-02-04T00:41:35.215Z,-0.40
2019-02-04T00:44:04.619Z,-0.40
2019-02-04T00:46:34.062Z,-0.40
2019-02-04T00:49:03.656Z,-0.40
2019-02-04T00:51:33.162Z,-0.40
2019-02-04T00:54:02.639Z,-0.40
2019-02-04T00:56:32.390Z,-0.40
2019-02-04T00:59:01.819Z,-0.40
2019-02-04T01:01:31.224Z,-0.50
2019-02-04T01:04:00.604Z,-0.50
2019-02-04T01:06:30.143Z,-0.50
2019-02-04T01:08:59.843Z,-0.60
2019-02-04T01:11:29.509Z,-0.60
2019-02-04T01:13:59.043Z,-0.70
2019-02-04T01:16:29.659Z,-0.70
2019-02-04T01:18:59.029Z,-0.70
2019-02-04T01:21:28.836Z,-0.70
2019-02-04T01:23:58.237Z,-0.80
2019-02-04T01:26:28.030Z,-0.80
2019-02-04T01:28:57.484Z,-0.80
2019-02-04T01:31:27.519Z,-0.80
2019-02-04T01:33:57.227Z,-0.80
2019-02-04T01:36:26.575Z,-0.90
2019-02-04T01:38:56.193Z,-0.90
2019-02-04T01:41:25.818Z,-0.80
2019-02-04T01:43:55.355Z,-0.80
2019-02-04T01:46:24.734Z,-0.90
2019-02-04T01:48:54.218Z,-0.80
2019-02-04T01:51:23.828Z,-0.80
2019-02-04T01:53:55.038Z,-0.80
2019-02-04T01:56:24.598Z,-0.80
2019-02-04T01:58:57.197Z,-0.80
2019-02-04T02:01:26.646Z,-0.80
2019-02-04T02:03:56.313Z,-0.80
2019-02-04T02:06:28.957Z,-0.80
2019-02-04T02:08:58.353Z,-0.80
2019-02-04T02:11:27.733Z,-0.80
2019-02-04T02:13:57.215Z,-0.80
2019-02-04T02:16:26.617Z,-0.90
2019-02-04T02:18:57.562Z,-0.90
2019-02-04T02:21:26.967Z,-0.90
2019-02-04T02:23:56.393Z,-0.90
2019-02-04T02:26:25.840Z,-0.90
2019-02-04T02:28:55.246Z,-0.90
2019-02-04T02:31:24.670Z,-0.90
2019-02-04T02:33:54.102Z,-0.90
2019-02-04T02:36:24.836Z,-0.90
2019-02-04T02:38:55.176Z,-0.90
2019-02-04T02:41:24.585Z,-0.80
2019-02-04T02:43:53.983Z,-0.80
2019-02-04T02:46:23.370Z,-0.70
2019-02-04T02:48:52.771Z,-0.60
2019-02-04T02:51:22.157Z,-0.60
2019-02-04T02:53:51.547Z,-0.60
2019-02-04T02:56:20.958Z,-0.50
2019-02-04T02:58:50.447Z,-0.50
2019-02-04T03:01:20.043Z,-0.40
2019-02-04T03:03:49.568Z,-0.40
2019-02-04T03:06:19.061Z,-0.30
2019-02-04T03:08:48.455Z,-0.40
2019-02-04T03:11:17.926Z,-0.40
2019-02-04T03:13:47.379Z,-0.40
2019-02-04T03:16:16.959Z,-0.50
2019-02-04T03:18:46.406Z,-0.50
2019-02-04T03:21:15.855Z,-0.60
2019-02-04T03:23:45.291Z,-0.50
2019-02-04T03:26:14.711Z,-0.60
2019-02-04T03:28:44.148Z,-0.50
2019-02-04T03:31:13.565Z,-0.50
2019-02-04T03:33:42.988Z,-0.60
2019-02-04T03:36:12.363Z,-0.60
2019-02-04T03:38:41.813Z,-0.60
2019-02-04T03:41:11.226Z,-0.60
2019-02-04T03:43:40.767Z,-0.50
2019-02-04T03:46:10.157Z,-0.40
2019-02-04T03:48:39.635Z,-0.50
2019-02-04T03:51:09.924Z,-0.60
2019-02-04T03:53:39.598Z,-0.60
2019-02-04T03:56:09.081Z,-0.60
2019-02-04T03:58:38.425Z,-0.60
2019-02-04T04:01:07.832Z,-0.70
2019-02-04T04:03:37.324Z,-0.70
2019-02-04T04:06:06.714Z,-0.70
2019-02-04T04:08:36.152Z,-0.70
2019-02-04T04:11:05.521Z,-0.70
2019-02-04T04:13:34.940Z,-0.70
2019-02-04T04:16:04.350Z,-0.70
2019-02-04T04:18:33.775Z,-0.70
2019-02-04T04:21:04.187Z,-0.70
2019-02-04T04:23:33.599Z,-0.80
2019-02-04T04:26:03.418Z,-0.80
2019-02-04T04:28:32.918Z,-0.80
2019-02-04T04:31:02.335Z,-0.80
2019-02-04T04:33:31.725Z,-0.70
2019-02-04T04:36:01.151Z,-0.70
2019-02-04T04:38:30.559Z,-0.70
2019-02-04T04:41:00.195Z,-0.70
2019-02-04T04:43:29.632Z,-0.80
2019-02-04T04:46:00.011Z,-0.80
2019-02-04T04:48:29.431Z,-0.80
2019-02-04T04:50:58.891Z,-0.80
2019-02-04T04:53:28.286Z,-0.80
2019-02-04T04:55:57.683Z,-0.90
2019-02-04T04:58:27.179Z,-1.00
2019-02-04T05:00:56.562Z,-1.10
2019-02-04T05:03:26.161Z,-1.10
2019-02-04T05:05:55.546Z,-1.10
2019-02-04T05:08:25.557Z,-1.20
2019-02-04T05:10:54.942Z,-1.10
2019-02-04T05:13:24.353Z,-1.10
2019-02-04T05:15:53.783Z,-1.10
2019-02-04T05:18:23.357Z,-1.10
2019-02-04T05:20:52.756Z,-1.20
2019-02-04T05:23:22.467Z,-1.20
2019-02-04T05:25:51.870Z,-1.10
2019-02-04T05:28:21.396Z,-1.10
2019-02-04T05:30:50.745Z,-1.00
2019-02-04T05:33:20.168Z,-1.00
2019-02-04T05:35:49.587Z,-1.00
2019-02-04T05:38:19.033Z,-1.00
2019-02-04T05:40:48.463Z,-1.00
2019-02-04T05:43:17.866Z,-1.00
2019-02-04T05:45:47.361Z,-0.90
2019-02-04T05:48:16.967Z,-1.00
2019-02-04T05:50:46.461Z,-1.00
2019-02-04T05:53:15.912Z,-1.20
2019-02-04T05:55:45.307Z,-1.20
2019-02-04T05:58:14.682Z,-1.30
2019-02-04T06:00:46.709Z,-1.30
2019-02-04T06:03:16.133Z,-1.10
2019-02-04T06:05:45.782Z,-1.10
2019-02-04T06:08:15.201Z,-1.20
2019-02-04T06:10:44.615Z,-1.10
2019-02-04T06:13:14.111Z,-1.10
2019-02-04T06:15:43.596Z,-1.00
2019-02-04T06:18:12.977Z,-1.00
2019-02-04T06:20:42.431Z,-1.10
2019-02-04T06:23:11.848Z,-1.20
2019-02-04T06:25:41.313Z,-1.10
2019-02-04T06:28:10.839Z,-1.00
2019-02-04T06:30:40.357Z,-1.00
2019-02-04T06:33:10.055Z,-1.00
2019-02-04T06:35:39.549Z,-1.00
2019-02-04T06:38:08.955Z,-1.00
2019-02-04T06:40:38.359Z,-1.10
2019-02-04T06:43:07.771Z,-1.00
2019-02-04T06:45:37.281Z,-1.00
2019-02-04T06:48:07.224Z,-0.90
2019-02-04T06:50:36.651Z,-0.80
2019-02-04T06:53:06.027Z,-0.70
2019-02-04T06:55:35.497Z,-0.50
2019-02-04T06:58:04.909Z,-0.40
2019-02-04T07:00:34.420Z,-0.30
2019-02-04T07:03:04.241Z,-0.20
2019-02-04T07:05:43.495Z,-0.10
2019-02-04T07:08:04.833Z,-0.10
2019-02-04T07:10:34.305Z,-0.20
2019-02-04T07:13:04.019Z,-0.20
2019-02-04T07:15:33.517Z,-0.10
2019-02-04T07:18:03.014Z,-0.10
2019-02-04T07:20:32.473Z,-0.20
2019-02-04T07:23:01.897Z,-0.20
2019-02-04T07:25:31.333Z,-0.30
2019-02-04T07:28:00.789Z,-0.30
2019-02-04T07:30:30.250Z,-0.40
2019-02-04T07:32:59.648Z,-0.40
2019-02-04T07:35:29.075Z,-0.30
2019-02-04T07:37:58.514Z,-0.30
2019-02-04T07:40:29.778Z,-0.20
2019-02-04T07:42:59.238Z,-0.20
2019-02-04T07:45:28.855Z,-0.20
2019-02-04T07:47:58.384Z,-0.20
2019-02-04T07:50:28.050Z,-0.20
2019-02-04T07:52:57.475Z,-0.10
2019-02-04T07:55:27.012Z,-0.10
2019-02-04T07:57:57.374Z,0.00
2019-02-04T08:00:29.779Z,0.00
2019-02-04T08:02:59.413Z,0.00
2019-02-04T08:05:28.972Z,0.00
2019-02-04T08:07:58.619Z,0.10
2019-02-04T08:10:28.023Z,0.20
2019-02-04T08:13:01.418Z,0.30
2019-02-04T08:15:31.174Z,0.40
2019-02-04T08:18:00.678Z,0.50
2019-02-04T08:20:33.781Z,0.60
2019-02-04T08:23:03.281Z,0.60
2019-02-04T08:25:32.873Z,0.70
2019-02-04T08:28:02.313Z,0.80
2019-02-04T08:30:33.640Z,0.90
2019-02-04T08:33:03.129Z,1.00
2019-02-04T08:35:33.013Z,1.10
2019-02-04T08:38:02.657Z,1.20
2019-02-04T08:40:32.173Z,1.30
2019-02-04T08:43:01.640Z,1.40
2019-02-04T08:45:32.028Z,1.30
2019-02-04T08:48:01.712Z,1.40
2019-02-04T08:50:31.394Z,1.50
2019-02-04T08:53:04.204Z,1.50
2019-02-04T08:55:34.112Z,1.60
2019-02-04T08:58:03.565Z,1.70
2019-02-04T09:00:32.922Z,1.80
2019-02-04T09:03:02.366Z,1.90
2019-02-04T09:05:31.780Z,1.90
2019-02-04T09:08:01.182Z,1.90
2019-02-04T09:10:32.163Z,2.00
2019-02-04T09:13:02.039Z,2.10
2019-02-04T09:15:31.430Z,2.20
2019-02-04T09:18:01.651Z,2.40
2019-02-04T09:20:31.026Z,2.40
2019-02-04T09:23:00.746Z,2.50
2019-02-04T09:25:30.284Z,2.50
2019-02-04T09:28:00.233Z,2.60
2019-02-04T09:30:29.875Z,2.70
2019-02-04T09:32:59.750Z,2.80
2019-02-04T09:35:29.125Z,2.90
2019-02-04T09:37:58.538Z,3.00
2019-02-04T09:40:33.648Z,3.00
2019-02-04T09:43:03.099Z,3.10
2019-02-04T09:45:32.495Z,3.20
2019-02-04T09:48:02.012Z,3.20
2019-02-04T09:50:32.700Z,3.40
2019-02-04T09:53:02.161Z,3.40
2019-02-04T09:55:33.736Z,3.40
2019-02-04T09:58:03.443Z,3.50
2019-02-04T10:00:33.885Z,3.60
2019-02-04T10:03:03.254Z,3.60
2019-02-04T10:05:32.683Z,3.70
2019-02-04T10:08:02.407Z,3.70
2019-02-04T10:10:31.846Z,3.90
2019-02-04T10:13:01.417Z,3.90
2019-02-04T10:15:33.161Z,3.90
2019-02-04T10:18:02.671Z,3.90
2019-02-04T10:20:34.683Z,4.00
2019-02-04T10:23:03.707Z,4.20
2019-02-04T10:25:34.960Z,4.30
2019-02-04T10:28:04.600Z,4.40
2019-02-04T10:30:34.013Z,4.50
2019-02-04T10:33:03.373Z,4.50
2019-02-04T10:35:33.103Z,4.60
2019-02-04T10:38:02.549Z,4.70
2019-02-04T10:40:32.144Z,4.80
2019-02-04T10:43:01.662Z,4.70
2019-02-04T10:45:31.077Z,4.80
2019-02-04T10:48:00.488Z,4.80
2019-02-04T10:50:32.124Z,4.80
2019-02-04T10:53:01.533Z,4.90
2019-02-04T10:55:30.909Z,4.80
2019-02-04T10:58:00.366Z,5.00
2019-02-04T11:00:32.051Z,5.10
2019-02-04T11:03:01.622Z,5.30
2019-02-04T11:05:32.799Z,5.30
2019-02-04T11:08:02.360Z,5.30
2019-02-04T11:10:34.380Z,5.40
2019-02-04T11:13:17.125Z,5.50
2019-02-04T11:15:47.802Z,5.50
2019-02-04T11:18:17.659Z,5.50
2019-02-04T11:20:57.721Z,5.60
2019-02-04T11:23:18.342Z,5.60
2019-02-04T11:25:48.246Z,5.60
2019-02-04T11:28:18.097Z,5.70
2019-02-04T11:30:53.659Z,5.80
2019-02-04T11:33:23.111Z,5.90
2019-02-04T11:35:53.058Z,6.00
2019-02-04T11:38:22.594Z,6.10
2019-02-04T11:40:52.322Z,6.00
2019-02-04T11:43:21.809Z,5.90
2019-02-04T11:45:51.221Z,6.00
2019-02-04T11:48:21.406Z,6.10
2019-02-04T11:50:50.921Z,6.10
2019-02-04T11:53:31.932Z,6.10
2019-02-04T11:55:51.459Z,6.10
2019-02-04T11:58:21.725Z,6.10
2019-02-04T12:00:56.324Z,6.00
2019-02-04T12:03:25.827Z,5.80
2019-02-04T12:06:02.938Z,5.70
2019-02-04T12:08:32.387Z,5.70
2019-02-04T12:11:06.297Z,5.80
2019-02-04T12:13:35.734Z,6.00
2019-02-04T12:16:07.085Z,6.10
2019-02-04T12:18:38.152Z,6.20
2019-02-04T12:21:08.105Z,6.50
2019-02-04T12:23:39.199Z,6.90
2019-02-04T12:26:08.745Z,7.10
2019-02-04T12:28:38.386Z,7.20
2019-02-04T12:31:10.829Z,7.10
2019-02-04T12:33:40.883Z,6.90
2019-02-04T12:36:10.489Z,6.80
2019-02-04T12:38:40.213Z,6.60
2019-02-04T12:41:10.182Z,6.40
2019-02-04T12:43:40.269Z,6.30
2019-02-04T12:46:10.001Z,6.30
2019-02-04T12:48:39.782Z,6.20
2019-02-04T12:51:09.410Z,6.10
2019-02-04T12:53:39.947Z,6.20
2019-02-04T12:56:09.585Z,6.30
2019-02-04T12:58:39.312Z,6.30
2019-02-04T13:01:08.948Z,6.50
2019-02-04T13:03:38.526Z,6.50
2019-02-04T13:06:09.808Z,6.40
2019-02-04T13:08:39.380Z,6.20
2019-02-04T13:11:08.990Z,6.10
2019-02-04T13:13:38.683Z,6.20
2019-02-04T13:16:09.032Z,6.40
2019-02-04T13:18:38.624Z,6.40
2019-02-04T13:21:08.326Z,6.30
2019-02-04T13:23:37.927Z,6.40
2019-02-04T13:26:07.559Z,6.50
2019-02-04T13:28:37.172Z,6.60
2019-02-04T13:31:06.897Z,6.60
2019-02-04T13:33:36.812Z,6.50
2019-02-04T13:36:06.502Z,6.60
2019-02-04T13:38:36.129Z,6.70
2019-02-04T13:41:08.180Z,6.80
2019-02-04T13:43:37.632Z,6.90
2019-02-04T13:46:07.368Z,6.80
2019-02-04T13:48:37.020Z,6.80
2019-02-04T13:51:07.041Z,6.70
2019-02-04T13:53:36.847Z,6.60
2019-02-04T13:56:06.550Z,6.60
2019-02-04T13:58:36.096Z,6.60
2019-02-04T14:01:05.816Z,6.50
2019-02-04T14:03:35.420Z,6.40
2019-02-04T14:06:07.448Z,6.20
2019-02-04T14:08:37.027Z,6.00
2019-02-04T14:11:06.926Z,6.00
2019-02-04T14:13:36.470Z,6.00
2019-02-04T14:16:06.271Z,5.90
2019-02-04T14:18:35.861Z,5.90
2019-02-04T14:21:05.521Z,6.00
2019-02-04T14:23:35.174Z,5.90
2019-02-04T14:26:04.838Z,5.90
2019-02-04T14:28:34.463Z,5.90
2019-02-04T14:31:04.091Z,5.90
2019-02-04T14:33:33.750Z,5.80
2019-02-04T14:36:03.418Z,5.70
2019-02-04T14:38:33.403Z,5.60
2019-02-04T14:41:02.970Z,5.50
2019-02-04T14:43:52.364Z,5.40
2019-02-04T14:46:47.672Z,5.30
2019-02-04T14:49:45.794Z,5.20
2019-02-04T14:53:14.581Z,5.20
2019-02-04T14:56:34.089Z,5.20
2019-02-04T14:59:26.783Z,5.10
2019-02-04T15:02:30.739Z,5.10
2019-02-04T15:05:42.955Z,5.00
2019-02-04T15:08:45.869Z,5.00
2019-02-04T15:11:56.335Z,4.90
2019-02-04T15:15:16.087Z,4.80
2019-02-04T15:18:16.563Z,4.80
2019-02-04T15:21:27.586Z,4.70
2019-02-04T15:24:40.696Z,4.70
2019-02-04T15:27:46.466Z,4.60
2019-02-04T15:30:59.286Z,4.50
2019-02-04T15:34:30.768Z,4.50
2019-02-04T15:37:28.855Z,4.30
2019-02-04T15:40:14.964Z,4.30
2019-02-04T15:43:13.564Z,4.20
2019-02-04T15:45:58.023Z,4.10
2019-02-04T15:49:07.661Z,4.00
2019-02-04T15:51:43.583Z,3.90
2019-02-04T15:54:13.299Z,3.80
2019-02-04T15:56:42.897Z,3.70
2019-02-04T15:59:12.510Z,3.70
2019-02-04T16:01:42.338Z,3.60
2019-02-04T16:04:29.155Z,3.60
2019-02-04T16:06:58.791Z,3.50
2019-02-04T16:09:28.508Z,3.40
2019-02-04T16:11:58.237Z,3.30
2019-02-04T16:14:28.030Z,3.30
2019-02-04T16:16:57.918Z,3.20
2019-02-04T16:19:27.681Z,3.20
2019-02-04T16:21:57.464Z,3.10
2019-02-04T16:24:27.232Z,3.00
2019-02-04T16:26:56.986Z,3.00
2019-02-04T16:29:27.020Z,2.90
2019-02-04T16:31:56.629Z,2.90
2019-02-04T16:34:26.314Z,2.90
2019-02-04T16:36:56.072Z,2.90
2019-02-04T16:39:25.716Z,2.90
2019-02-04T16:41:55.444Z,2.80
2019-02-04T16:44:25.645Z,2.80
2019-02-04T16:46:55.218Z,2.70
2019-02-04T16:49:24.806Z,2.60
2019-02-04T16:51:54.329Z,2.60
2019-02-04T16:54:24.015Z,2.50
2019-02-04T16:56:53.723Z,2.50
2019-02-04T16:59:23.904Z,2.40
2019-02-04T17:01:53.453Z,2.40
2019-02-04T17:04:23.070Z,2.40
2019-02-04T17:06:52.625Z,2.40
2019-02-04T17:09:22.340Z,2.30
2019-02-04T17:11:51.976Z,2.30
2019-02-04T17:14:21.706Z,2.30
2019-02-04T17:16:51.395Z,2.20
2019-02-04T17:19:21.071Z,2.20
2019-02-04T17:21:50.778Z,2.20
2019-02-04T17:24:20.386Z,2.20
2019-02-04T17:26:49.993Z,2.20
2019-02-04T17:29:19.843Z,2.20
2019-02-04T17:31:49.426Z,2.20
2019-02-04T17:34:19.127Z,2.20
2019-02-04T17:36:48.727Z,2.10
2019-02-04T17:39:18.376Z,2.10
2019-02-04T17:41:50.958Z,2.10
2019-02-04T17:44:20.605Z,2.00
2019-02-04T17:46:50.171Z,2.00
2019-02-04T17:49:24.453Z,2.00
2019-02-04T17:51:54.065Z,2.00
2019-02-04T17:54:23.652Z,2.00
2019-02-04T17:56:53.326Z,2.00
2019-02-04T17:59:23.282Z,2.00
2019-02-04T18:01:53.003Z,2.00
2019-02-04T18:04:22.701Z,2.00
2019-02-04T18:06:52.497Z,2.00
2019-02-04T18:09:23.138Z,2.00
2019-02-04T18:11:52.799Z,2.00
2019-02-04T18:14:22.846Z,2.00
2019-02-04T18:16:52.607Z,1.90
2019-02-04T18:19:22.875Z,1.90
2019-02-04T18:21:52.727Z,1.90
2019-02-04T18:24:22.390Z,1.90
2019-02-04T18:26:52.393Z,1.90
2019-02-04T18:29:22.101Z,1.90
2019-02-04T18:31:51.787Z,1.80
2019-02-04T18:34:22.846Z,1.90
2019-02-04T18:36:52.729Z,1.90
2019-02-04T18:39:22.594Z,1.90
2019-02-04T18:41:55.526Z,1.90
2019-02-04T18:44:23.998Z,1.90
2019-02-04T18:46:53.799Z,1.90
2019-02-04T18:49:26.095Z,1.90
2019-02-04T18:51:56.082Z,1.90
2019-02-04T18:54:26.363Z,2.00
2019-02-04T18:56:56.269Z,2.00
2019-02-04T18:59:26.312Z,2.00
2019-02-04T19:01:57.936Z,2.00
2019-02-04T19:04:27.752Z,2.00
2019-02-04T19:06:57.646Z,2.00
2019-02-04T19:09:27.232Z,1.90
2019-02-04T19:11:56.971Z,1.90
2019-02-04T19:14:27.295Z,1.90
2019-02-04T19:16:57.179Z,1.90
2019-02-04T19:19:26.884Z,1.80
2019-02-04T19:21:58.665Z,1.70
2019-02-04T19:24:28.799Z,1.70
2019-02-04T19:26:58.683Z,1.70
2019-02-04T19:29:32.249Z,1.70
2019-02-04T19:32:05.657Z,1.70
2019-02-04T19:34:35.360Z,1.70
2019-02-04T19:37:05.217Z,1.70
2019-02-04T19:39:36.777Z,1.70
2019-02-04T19:42:07.399Z,1.60
2019-02-04T19:44:40.628Z,1.60
2019-02-04T19:47:13.694Z,1.60
2019-02-04T19:49:43.601Z,1.70
2019-02-04T19:52:13.505Z,1.60
2019-02-04T19:54:43.790Z,1.50
2019-02-04T19:57:19.805Z,1.60
2019-02-04T19:59:49.521Z,1.50
2019-02-04T20:02:21.036Z,1.60
2019-02-04T20:04:58.252Z,1.60
2019-02-04T20:07:29.326Z,1.50
2019-02-04T20:09:59.116Z,1.50
2019-02-04T20:12:29.183Z,1.50
2019-02-04T20:14:59.066Z,1.50
2019-02-04T20:17:28.767Z,1.50
2019-02-04T20:19:58.676Z,1.50
2019-02-04T20:22:30.407Z,1.50
2019-02-04T20:25:02.647Z,1.50
2019-02-04T20:27:32.549Z,1.50
2019-02-04T20:30:03.993Z,1.50
2019-02-04T20:32:34.230Z,1.50
2019-02-04T20:35:13.473Z,1.50
2019-02-04T20:37:46.171Z,1.40
2019-02-04T20:40:17.600Z,1.40
2019-02-04T20:42:47.426Z,1.50
2019-02-04T20:45:18.356Z,1.50
2019-02-04T20:47:59.837Z,1.50
2019-02-04T20:50:35.179Z,1.50
2019-02-04T20:53:13.002Z,1.50
2019-02-04T20:55:43.141Z,1.50
2019-02-04T20:58:15.163Z,1.50
2019-02-04T21:00:46.398Z,1.50
2019-02-04T21:03:19.295Z,1.40
2019-02-04T21:05:49.214Z,1.40
2019-02-04T21:08:19.817Z,1.30
2019-02-04T21:11:13.202Z,1.30
2019-02-04T21:13:43.006Z,1.30
2019-02-04T21:16:15.611Z,1.30
2019-02-04T21:18:45.475Z,1.40
2019-02-04T21:21:17.345Z,1.40
2019-02-04T21:23:48.544Z,1.40
2019-02-04T21:26:18.464Z,1.30
2019-02-04T21:28:48.567Z,1.30
2019-02-04T21:31:21.321Z,1.20
2019-02-04T21:33:55.266Z,1.30
2019-02-04T21:36:31.092Z,1.30
2019-02-04T21:39:01.180Z,1.30
2019-02-04T21:41:31.579Z,1.30
2019-02-04T21:44:02.349Z,1.30
2019-02-04T21:46:32.127Z,1.40
2019-02-04T21:49:02.113Z,1.30
2019-02-04T21:51:35.088Z,1.40
2019-02-04T21:54:07.458Z,1.40
2019-02-04T21:56:37.324Z,1.30
2019-02-04T21:59:06.935Z,1.30
2019-02-04T22:01:36.721Z,1.30
2019-02-04T22:04:06.783Z,1.30
2019-02-04T22:06:36.787Z,1.40
2019-02-04T22:09:09.505Z,1.40
2019-02-04T22:11:39.461Z,1.40
2019-02-04T22:14:09.915Z,1.30
2019-02-04T22:16:40.222Z,1.30
2019-02-04T22:19:10.192Z,1.30
2019-02-04T22:21:42.351Z,1.30
2019-02-04T22:24:48.885Z,1.40
2019-02-04T22:27:18.662Z,1.40
2019-02-04T22:29:48.283Z,1.30
2019-02-04T22:32:18.062Z,1.30
2019-02-04T22:34:47.990Z,1.30
2019-02-04T22:37:17.812Z,1.30
2019-02-04T22:39:47.725Z,1.30
2019-02-04T22:42:17.427Z,1.20
2019-02-04T22:44:47.204Z,1.20
2019-02-04T22:47:17.256Z,1.30
2019-02-04T22:49:47.049Z,1.20
2019-02-04T22:52:16.932Z,1.20
2019-02-04T22:54:46.927Z,1.20
2019-02-04T22:57:16.593Z,1.20
2019-02-04T22:59:46.445Z,1.20
2019-02-04T23:02:16.228Z,1.20
2019-02-04T23:04:47.278Z,1.30
2019-02-04T23:07:16.966Z,1.30
2019-02-04T23:09:46.918Z,1.30
2019-02-04T23:12:16.647Z,1.30
2019-02-04T23:14:46.514Z,1.30
2019-02-04T23:17:16.265Z,1.30
2019-02-04T23:19:45.817Z,1.20
2019-02-04T23:22:15.507Z,1.10
2019-02-04T23:24:45.121Z,1.10
2019-02-04T23:27:14.806Z,1.00
2019-02-04T23:29:44.518Z,0.90
2019-02-04T23:32:14.120Z,0.90
2019-02-04T23:34:43.715Z,0.90
2019-02-04T23:38:00.735Z,0.80
2019-02-04T23:40:30.367Z,0.80
2019-02-04T23:43:00.077Z,0.80
2019-02-04T23:45:30.100Z,0.90
2019-02-04T23:48:01.161Z,0.90
2019-02-04T23:50:30.748Z,0.90
2019-02-04T23:53:00.323Z,1.00
2019-02-04T23:55:29.962Z,1.00
2019-02-04T23:57:59.602Z,1.00
